Weather at Altus Air Force Base

Public forecast

Using degrees Fahrenheit for public forecast. Weather courtesy of forecast.io.

Current aviation weather report (METAR) for Altus Air Force Base

Retrieved 2021/11/30 14:56 UTC (14 minutes ago):

KLTS 301456Z 00000KT 10SM CLR 08/02 A3001 RMK AO2A SLP165 TMP 07C RWY 18L TMP 07C RWY 36L TMP 07C RWY 36R T00790015 52008

Aviation forecast (TAF) for Altus Air Force Base

Retrieved 2021/11/30 09:45 UTC (5 hours ago):

TAF KLTS 300900Z 3009/0115 VRB06KT 9999 SKC QNH2997INS BECMG 3014/3015 27006KT 9999 SKC QNH2998INS BECMG 0102/0103 VRB06KT 9999 SKC QNH3000INS TX24/3021Z TN03/3012Z